createdAt,value
2022-12-05T00:01:35.105Z,16.83
2022-12-05T00:06:40.241Z,18.20
2022-12-05T00:11:45.236Z,15.97
2022-12-05T00:16:50.247Z,15.73
2022-12-05T00:21:53.750Z,16.40
2022-12-05T00:26:57.359Z,17.35
2022-12-05T00:32:02.080Z,15.60
2022-12-05T00:37:05.717Z,15.15
2022-12-05T00:42:08.972Z,14.57
2022-12-05T00:47:13.936Z,13.40
2022-12-05T00:52:17.522Z,15.00
2022-12-05T00:57:20.835Z,13.75
2022-12-05T01:02:25.524Z,14.65
2022-12-05T01:07:28.838Z,14.38
2022-12-05T01:12:32.133Z,14.07
2022-12-05T01:17:37.082Z,12.73
2022-12-05T01:22:40.341Z,12.40
2022-12-05T01:27:44.222Z,5.38
2022-12-05T01:32:49.318Z,12.57
2022-12-05T01:37:53.264Z,12.82
2022-12-05T01:42:57.089Z,13.82
2022-12-05T01:48:06.715Z,12.77
2022-12-05T01:53:10.137Z,12.75
2022-12-05T01:58:13.452Z,11.73
2022-12-05T02:03:21.196Z,11.65
2022-12-05T02:08:24.819Z,12.93
2022-12-05T02:13:38.603Z,12.45
2022-12-05T02:18:55.102Z,12.93
2022-12-05T02:24:44.492Z,12.88
2022-12-05T02:30:07.941Z,11.85
2022-12-05T02:35:19.932Z,11.90
2022-12-05T02:40:27.876Z,12.03
2022-12-05T02:45:35.237Z,12.13
2022-12-05T02:50:40.430Z,11.77
2022-12-05T02:55:44.994Z,11.10
2022-12-05T03:00:52.229Z,12.05
2022-12-05T03:06:03.900Z,11.88
2022-12-05T03:11:08.120Z,11.38
2022-12-05T03:16:18.316Z,11.63
2022-12-05T03:21:31.697Z,9.82
2022-12-05T03:26:52.128Z,8.35
2022-12-05T03:32:07.158Z,9.20
2022-12-05T03:37:15.208Z,8.00
2022-12-05T03:42:28.772Z,9.23
2022-12-05T03:47:43.527Z,9.07
2022-12-05T03:53:18.502Z,7.90
2022-12-05T03:58:19.101Z,8.07
2022-12-05T04:03:39.136Z,9.20
2022-12-05T04:08:48.664Z,8.90
2022-12-05T04:13:54.238Z,8.85
2022-12-05T04:19:04.730Z,7.68
2022-12-05T04:24:28.632Z,6.23
2022-12-05T04:29:36.079Z,7.57
2022-12-05T04:34:42.082Z,5.57
2022-12-05T04:39:49.992Z,7.00
2022-12-05T04:44:55.203Z,6.63
2022-12-05T04:50:01.610Z,9.05
2022-12-05T04:55:10.043Z,7.65
2022-12-05T05:00:14.025Z,7.70
2022-12-05T05:05:19.900Z,11.27
2022-12-05T05:10:31.808Z,11.93
2022-12-05T05:15:37.268Z,13.25
2022-12-05T05:20:41.990Z,13.00
2022-12-05T05:25:45.631Z,15.23
2022-12-05T05:30:49.324Z,19.05
2022-12-05T05:35:54.026Z,12.05
2022-12-05T05:40:57.675Z,9.55
2022-12-05T05:46:01.346Z,11.30
2022-12-05T05:51:07.571Z,11.60
2022-12-05T05:56:15.968Z,16.40
2022-12-05T06:01:23.666Z,13.65
2022-12-05T06:06:28.798Z,16.40
2022-12-05T06:11:32.212Z,15.13
2022-12-05T06:16:35.745Z,16.00
2022-12-05T06:21:40.659Z,15.10
2022-12-05T06:26:44.248Z,16.80
2022-12-05T06:31:47.679Z,16.33
2022-12-05T06:36:52.759Z,15.85
2022-12-05T06:41:56.318Z,18.88
2022-12-05T06:46:59.778Z,16.35
2022-12-05T06:52:04.693Z,18.83
2022-12-05T06:57:08.036Z,17.57
2022-12-05T07:02:14.004Z,16.33
2022-12-05T07:07:19.040Z,12.37
2022-12-05T07:12:22.653Z,17.07
2022-12-05T07:17:26.283Z,14.02
2022-12-05T07:22:31.231Z,14.20
2022-12-05T07:27:35.297Z,16.85
2022-12-05T07:32:38.873Z,24.08
2022-12-05T07:37:43.679Z,18.45
2022-12-05T07:42:49.830Z,18.63
2022-12-05T07:47:53.457Z,17.73
2022-12-05T07:52:58.275Z,15.93
2022-12-05T07:58:01.822Z,15.43
2022-12-05T08:03:05.452Z,11.05
2022-12-05T08:08:10.640Z,15.07
2022-12-05T08:13:14.298Z,12.93
2022-12-05T08:18:17.860Z,11.20
2022-12-05T08:23:22.529Z,19.70
2022-12-05T08:28:25.809Z,18.13
2022-12-05T08:33:29.370Z,15.53
2022-12-05T08:38:34.847Z,17.42
2022-12-05T08:43:38.425Z,15.90
2022-12-05T08:48:41.702Z,17.75
2022-12-05T08:53:46.397Z,18.45
2022-12-05T08:58:50.037Z,18.88
2022-12-05T09:03:53.599Z,16.40
2022-12-05T09:09:00.398Z,17.40
2022-12-05T09:14:05.228Z,15.17
2022-12-05T09:19:13.194Z,21.80
2022-12-05T09:24:17.905Z,15.35
2022-12-05T09:29:21.178Z,15.57
2022-12-05T09:34:26.075Z,15.70
2022-12-05T09:39:30.800Z,29.77
2022-12-05T09:44:47.044Z,16.37
2022-12-05T09:49:56.076Z,17.87
2022-12-05T09:55:06.282Z,15.57
2022-12-05T10:00:12.697Z,17.25
2022-12-05T10:05:21.004Z,18.95
2022-12-05T10:10:34.937Z,13.93
2022-12-05T10:15:45.867Z,15.60
2022-12-05T10:20:55.703Z,14.90
2022-12-05T10:26:01.837Z,14.63
2022-12-05T10:31:09.060Z,16.23
2022-12-05T10:36:13.726Z,14.32
2022-12-05T10:41:19.012Z,13.40
2022-12-05T10:46:22.318Z,12.93
2022-12-05T10:51:35.633Z,11.52
2022-12-05T10:56:44.977Z,9.90
2022-12-05T11:01:51.116Z,7.93
2022-12-05T11:06:57.364Z,9.73
2022-12-05T11:12:15.637Z,10.27
2022-12-05T11:17:27.611Z,11.05
2022-12-05T11:22:37.359Z,10.30
2022-12-05T11:27:42.341Z,11.93
2022-12-05T11:32:45.724Z,9.10
2022-12-05T11:37:53.401Z,9.68
2022-12-05T11:43:15.332Z,11.33
2022-12-05T11:48:31.793Z,10.37
2022-12-05T11:54:02.566Z,10.63
2022-12-05T11:59:24.065Z,12.73
2022-12-05T12:04:39.404Z,11.93
2022-12-05T12:09:50.933Z,10.85
2022-12-05T12:15:07.250Z,13.07
2022-12-05T12:20:35.113Z,11.52
2022-12-05T12:25:45.776Z,10.73
2022-12-05T12:31:03.712Z,15.70
2022-12-05T12:36:16.916Z,12.73
2022-12-05T12:41:38.441Z,11.52
2022-12-05T12:46:50.676Z,11.63
2022-12-05T12:51:55.982Z,12.70
2022-12-05T12:57:13.337Z,14.83
2022-12-05T13:02:25.632Z,11.88
2022-12-05T13:07:35.875Z,8.50
2022-12-05T13:12:42.479Z,10.60
2022-12-05T13:17:50.149Z,10.07
2022-12-05T13:22:54.560Z,8.95
2022-12-05T13:28:01.799Z,8.60
2022-12-05T13:33:10.203Z,9.73
2022-12-05T13:38:39.698Z,10.20
2022-12-05T13:43:49.357Z,10.15
2022-12-05T13:49:07.006Z,11.52
2022-12-05T13:54:14.447Z,10.15
2022-12-05T13:59:56.980Z,10.80
2022-12-05T14:05:02.552Z,12.33
2022-12-05T14:10:07.081Z,11.60
2022-12-05T14:15:29.880Z,12.25
2022-12-05T14:20:56.655Z,10.70
2022-12-05T14:26:14.563Z,11.07
2022-12-05T14:31:39.616Z,12.20
2022-12-05T14:37:02.574Z,10.98
2022-12-05T14:42:17.310Z,10.90
2022-12-05T14:47:24.042Z,13.20
2022-12-05T14:52:31.641Z,13.63
2022-12-05T14:57:44.886Z,11.77
2022-12-05T15:02:50.966Z,12.48
2022-12-05T15:07:57.628Z,12.50
2022-12-05T15:13:04.624Z,13.48
2022-12-05T15:18:19.324Z,12.02
2022-12-05T15:23:45.069Z,13.35
2022-12-05T15:29:07.919Z,12.70
2022-12-05T15:34:18.949Z,10.95
2022-12-05T15:39:26.542Z,11.20
2022-12-05T15:44:37.416Z,11.37
2022-12-05T15:49:41.476Z,14.07
2022-12-05T15:54:46.997Z,17.67
2022-12-05T15:59:55.259Z,15.97
2022-12-05T16:05:00.487Z,15.10
2022-12-05T16:10:06.257Z,16.67
2022-12-05T16:15:14.351Z,15.80
2022-12-05T16:20:32.128Z,13.97
2022-12-05T16:25:37.952Z,12.70
2022-12-05T16:30:41.251Z,14.27
2022-12-05T16:35:46.641Z,14.80
2022-12-05T16:40:58.119Z,12.10
2022-12-05T16:46:27.837Z,12.20
2022-12-05T16:51:42.168Z,12.60
2022-12-05T16:56:46.957Z,13.53
2022-12-05T17:01:50.305Z,16.63
2022-12-05T17:06:53.615Z,15.38
2022-12-05T17:12:03.575Z,13.17
2022-12-05T17:17:12.649Z,14.50
2022-12-05T17:22:16.774Z,15.45
2022-12-05T17:27:23.104Z,15.45
2022-12-05T17:32:26.366Z,17.47
2022-12-05T17:37:29.632Z,15.87
2022-12-05T17:42:34.285Z,16.60
2022-12-05T17:47:37.641Z,16.25
2022-12-05T17:52:40.996Z,17.10
2022-12-05T17:57:46.743Z,17.70
2022-12-05T18:02:50.651Z,19.23
2022-12-05T18:07:54.564Z,23.60
2022-12-05T18:12:59.326Z,18.35
2022-12-05T18:18:03.884Z,17.52
2022-12-05T18:23:07.134Z,15.95
2022-12-05T18:28:16.335Z,16.10
2022-12-05T18:33:22.777Z,15.63
2022-12-05T18:38:26.142Z,16.15
2022-12-05T18:43:30.827Z,16.08
2022-12-05T18:48:42.737Z,15.43
2022-12-05T18:53:53.212Z,15.33
2022-12-05T18:59:01.956Z,15.98
2022-12-05T19:04:07.641Z,15.48
2022-12-05T19:09:15.451Z,16.00
2022-12-05T19:14:20.985Z,15.40
2022-12-05T19:19:24.604Z,16.40
2022-12-05T19:24:28.814Z,20.65
2022-12-05T19:29:34.628Z,17.43
2022-12-05T19:34:38.188Z,17.15
2022-12-05T19:39:42.811Z,21.40
2022-12-05T19:44:49.413Z,17.50
2022-12-05T19:49:52.728Z,16.65
2022-12-05T19:54:56.083Z,17.42
2022-12-05T20:00:00.963Z,16.45
2022-12-05T20:05:04.732Z,16.98
2022-12-05T20:10:08.625Z,15.70
2022-12-05T20:15:13.466Z,16.87
2022-12-05T20:20:17.136Z,15.75
2022-12-05T20:25:20.588Z,14.27
2022-12-05T20:30:25.600Z,16.85
2022-12-05T20:35:29.578Z,11.93
2022-12-05T20:40:33.768Z,11.10
2022-12-05T20:45:38.662Z,9.95
2022-12-05T20:50:42.483Z,8.80
2022-12-05T20:55:45.811Z,8.50
2022-12-05T21:00:50.526Z,8.27
2022-12-05T21:05:53.835Z,10.07
2022-12-05T21:10:57.133Z,8.53
2022-12-05T21:16:04.984Z,8.40
2022-12-05T21:21:10.484Z,9.17
2022-12-05T21:26:15.425Z,8.35
2022-12-05T21:31:22.887Z,7.63
2022-12-05T21:36:27.515Z,7.30
2022-12-05T21:41:30.810Z,7.80
2022-12-05T21:46:35.912Z,7.38
2022-12-05T21:51:40.052Z,7.82
2022-12-05T21:56:43.533Z,7.70
2022-12-05T22:01:48.286Z,7.47
2022-12-05T22:06:51.625Z,8.02
2022-12-05T22:11:55.138Z,8.98
2022-12-05T22:16:59.826Z,7.53
2022-12-05T22:22:03.208Z,8.13
2022-12-05T22:27:06.542Z,7.78
2022-12-05T22:32:12.029Z,7.83
2022-12-05T22:37:18.376Z,7.63
2022-12-05T22:42:21.710Z,8.82
2022-12-05T22:47:26.370Z,8.88
2022-12-05T22:52:29.669Z,8.57
2022-12-05T22:57:32.976Z,7.45
2022-12-05T23:02:37.787Z,7.43
2022-12-05T23:07:41.307Z,7.00
2022-12-05T23:12:44.910Z,7.68
2022-12-05T23:17:50.519Z,8.63
2022-12-05T23:22:53.945Z,8.13
2022-12-05T23:27:57.356Z,8.37
2022-12-05T23:33:02.144Z,8.57
2022-12-05T23:38:05.561Z,8.53
2022-12-05T23:43:08.982Z,9.63
2022-12-05T23:48:13.819Z,10.45
2022-12-05T23:53:17.406Z,9.23
2022-12-05T23:58:20.846Z,9.63
